BAW9UQ EGLL-LGKR
Flight info
| Callsign | BAW9UQ |
|---|---|
| Flight time | 2h 38m |
| Altitude | 37000 |
| Route | DET L6 DVR L9 KONAN UL607 KOK DCT SISGA DCT KOMOB DCT KRH DCT KUNOD DCT GEDSO DCT VEKEN DCT ALIVO DCT UNIPA DCT VAKSU DCT RODON DCT LIMJA N732 PITAS |
| Aircraft | A320/M-SDE3FGHIRWY/LB1 |
Departure
| Time | 2026-05-04 08:11 |
|---|---|
| Airport | London Heathrow Airport (EGLL) |
Arrival
| Time | 2026-05-04 10:49 |
|---|---|
| Airport | Corfu Ioannis Kapodistrias International Airport (LGKR) |
| Time | Latitude | Longitude | Altitude | Speed | Heading |
|---|---|---|---|---|---|
| 2026-05-04 07:40 | 51.47088 | -0.48587 | 86 ft | 0 kts | 270° |
| 2026-05-04 07:54 | 51.47088 | -0.48537 | 86 ft | 2 kts | 270° |
| 2026-05-04 07:55 | 51.47088 | -0.48510 | 87 ft | 2 kts | 273° |
| 2026-05-04 07:55 | 51.47084 | -0.48484 | 88 ft | 2 kts | 326° |
| 2026-05-04 07:55 | 51.47077 | -0.48477 | 89 ft | 0 kts | 360° |
| 2026-05-04 07:55 | 51.47075 | -0.48477 | 88 ft | 2 kts | 360° |
| 2026-05-04 07:56 | 51.47058 | -0.48477 | 89 ft | 2 kts | 360° |
| 2026-05-04 07:56 | 51.47042 | -0.48477 | 86 ft | 2 kts | 360° |
| 2026-05-04 07:56 | 51.47025 | -0.48475 | 87 ft | 2 kts | 356° |
| 2026-05-04 07:56 | 51.47012 | -0.48474 | 87 ft | 0 kts | 356° |
| 2026-05-04 07:59 | 51.47014 | -0.48474 | 87 ft | 2 kts | 356° |
| 2026-05-04 07:59 | 51.47034 | -0.48461 | 88 ft | 6 kts | 33° |
| 2026-05-04 07:59 | 51.47055 | -0.48411 | 86 ft | 0 kts | 64° |
| 2026-05-04 08:00 | 51.47041 | -0.48370 | 87 ft | 11 kts | 137° |
| 2026-05-04 08:00 | 51.46952 | -0.48353 | 86 ft | 14 kts | 181° |
| 2026-05-04 08:00 | 51.46844 | -0.48353 | 85 ft | 16 kts | 179° |
| 2026-05-04 08:02 | 51.46750 | -0.47127 | 85 ft | 18 kts | 89° |
| 2026-05-04 08:02 | 51.46749 | -0.46950 | 85 ft | 15 kts | 90° |
| 2026-05-04 08:02 | 51.46749 | -0.46766 | 85 ft | 18 kts | 90° |
| 2026-05-04 08:03 | 51.46750 | -0.46556 | 85 ft | 20 kts | 89° |
| 2026-05-04 08:03 | 51.46750 | -0.46325 | 85 ft | 22 kts | 90° |
| 2026-05-04 08:03 | 51.46751 | -0.46072 | 85 ft | 23 kts | 89° |
| 2026-05-04 08:03 | 51.46751 | -0.45806 | 85 ft | 25 kts | 90° |
| 2026-05-04 08:04 | 51.46752 | -0.45549 | 85 ft | 23 kts | 90° |
| 2026-05-04 08:04 | 51.46752 | -0.45302 | 85 ft | 21 kts | 90° |
| 2026-05-04 08:04 | 51.46754 | -0.45084 | 85 ft | 20 kts | 89° |
| 2026-05-04 08:04 | 51.46756 | -0.44883 | 87 ft | 16 kts | 89° |
| 2026-05-04 08:05 | 51.46756 | -0.44699 | 88 ft | 18 kts | 90° |
| 2026-05-04 08:05 | 51.46756 | -0.44490 | 85 ft | 20 kts | 90° |
| 2026-05-04 08:05 | 51.46757 | -0.44288 | 86 ft | 14 kts | 89° |
| 2026-05-04 08:05 | 51.46757 | -0.44179 | 86 ft | 7 kts | 90° |
| 2026-05-04 08:06 | 51.46762 | -0.44087 | 89 ft | 10 kts | 82° |
| 2026-05-04 08:06 | 51.46768 | -0.43963 | 85 ft | 12 kts | 89° |
| 2026-05-04 08:06 | 51.46733 | -0.43841 | 86 ft | 10 kts | 150° |
| 2026-05-04 08:06 | 51.46687 | -0.43830 | 83 ft | 9 kts | 179° |
| 2026-05-04 08:08 | 51.46608 | -0.43830 | 80 ft | 0 kts | 181° |
| 2026-05-04 08:08 | 51.46588 | -0.43830 | 80 ft | 10 kts | 181° |
| 2026-05-04 08:10 | 51.46492 | -0.44626 | 88 ft | 92 kts | 269° |
| 2026-05-04 08:11 | 51.46486 | -0.45972 | 84 ft | 144 kts | 270° |
| 2026-05-04 08:11 | 51.46466 | -0.49461 | 1056 ft | 153 kts | 267° |
| 2026-05-04 08:11 | 51.46367 | -0.51175 | 1511 ft | 160 kts | 261° |
| 2026-05-04 08:12 | 51.46072 | -0.52907 | 2048 ft | 164 kts | 248° |
| 2026-05-04 08:12 | 51.45536 | -0.54529 | 2626 ft | 164 kts | 233° |
| 2026-05-04 08:12 | 51.44734 | -0.55778 | 3248 ft | 158 kts | 211° |
| 2026-05-04 08:12 | 51.43738 | -0.56399 | 3815 ft | 152 kts | 187° |
| 2026-05-04 08:13 | 51.42709 | -0.56329 | 4321 ft | 146 kts | 163° |
| 2026-05-04 08:13 | 51.41791 | -0.55599 | 4554 ft | 159 kts | 139° |
| 2026-05-04 08:13 | 51.41001 | -0.54194 | 4702 ft | 183 kts | 122° |
| 2026-05-04 08:13 | 51.40463 | -0.52226 | 4948 ft | 205 kts | 106° |
| 2026-05-04 08:14 | 51.39931 | -0.49987 | 5238 ft | 228 kts | 118° |
| 2026-05-04 08:14 | 51.39005 | -0.47795 | 5590 ft | 252 kts | 132° |
| 2026-05-04 08:14 | 51.37699 | -0.45768 | 6080 ft | 269 kts | 138° |
| 2026-05-04 08:16 | 51.31198 | -0.27395 | 10573 ft | 342 kts | 86° |
| 2026-05-04 08:16 | 51.31420 | -0.23552 | 10763 ft | 361 kts | 86° |
| 2026-05-04 08:16 | 51.31605 | -0.19485 | 11306 ft | 368 kts | 88° |
| 2026-05-04 08:17 | 51.31698 | -0.15377 | 11934 ft | 372 kts | 90° |
| 2026-05-04 08:17 | 51.31705 | -0.11222 | 12590 ft | 375 kts | 92° |
| 2026-05-04 08:17 | 51.31654 | -0.07239 | 13224 ft | 378 kts | 93° |
| 2026-05-04 08:17 | 51.31566 | -0.03030 | 13909 ft | 382 kts | 94° |
| 2026-05-04 08:19 | 51.31004 | 0.27579 | 18031 ft | 406 kts | 93° |
| 2026-05-04 08:19 | 51.30927 | 0.32100 | 18594 ft | 409 kts | 94° |
| 2026-05-04 08:20 | 51.30845 | 0.36669 | 19139 ft | 413 kts | 94° |
| 2026-05-04 08:20 | 51.30757 | 0.41274 | 19647 ft | 417 kts | 94° |
| 2026-05-04 08:20 | 51.30667 | 0.45935 | 20169 ft | 420 kts | 94° |
| 2026-05-04 08:20 | 51.30578 | 0.50612 | 20630 ft | 424 kts | 94° |
| 2026-05-04 08:21 | 51.30487 | 0.55343 | 21101 ft | 428 kts | 94° |
| 2026-05-04 08:21 | 51.30217 | 0.60097 | 21555 ft | 429 kts | 102° |
| 2026-05-04 08:21 | 51.29505 | 0.64721 | 21992 ft | 430 kts | 109° |
| 2026-05-04 08:21 | 51.28663 | 0.69293 | 22420 ft | 432 kts | 109° |
| 2026-05-04 08:22 | 51.27810 | 0.73920 | 22840 ft | 435 kts | 109° |
| 2026-05-04 08:22 | 51.26951 | 0.78575 | 23257 ft | 438 kts | 109° |
| 2026-05-04 08:24 | 51.20808 | 1.11791 | 25618 ft | 454 kts | 110° |
| 2026-05-04 08:24 | 51.19890 | 1.16685 | 25967 ft | 456 kts | 110° |
| 2026-05-04 08:24 | 51.18992 | 1.21470 | 26302 ft | 458 kts | 111° |
| 2026-05-04 08:24 | 51.18073 | 1.26344 | 26631 ft | 460 kts | 111° |
| 2026-05-04 08:25 | 51.17147 | 1.31230 | 26957 ft | 461 kts | 111° |
| 2026-05-04 08:25 | 51.16359 | 1.36208 | 27328 ft | 466 kts | 104° |
| 2026-05-04 08:25 | 51.16005 | 1.41350 | 27792 ft | 468 kts | 98° |
| 2026-05-04 08:25 | 51.15771 | 1.46517 | 28233 ft | 467 kts | 99° |
| 2026-05-04 08:26 | 51.15528 | 1.51679 | 28685 ft | 466 kts | 99° |
| 2026-05-04 08:27 | 51.13736 | 1.87430 | 31688 ft | 460 kts | 100° |
| 2026-05-04 08:28 | 51.13474 | 1.92443 | 32039 ft | 460 kts | 100° |
| 2026-05-04 08:28 | 51.13207 | 1.97514 | 32390 ft | 461 kts | 100° |
| 2026-05-04 08:28 | 51.12940 | 2.02602 | 32766 ft | 461 kts | 100° |
| 2026-05-04 08:28 | 51.12673 | 2.07687 | 33149 ft | 461 kts | 100° |
| 2026-05-04 08:29 | 51.12404 | 2.12783 | 33535 ft | 461 kts | 100° |
| 2026-05-04 08:29 | 51.12132 | 2.17868 | 33927 ft | 461 kts | 100° |
| 2026-05-04 08:29 | 51.11855 | 2.22953 | 34261 ft | 461 kts | 100° |
| 2026-05-04 08:31 | 51.09861 | 2.58376 | 36376 ft | 458 kts | 99° |
| 2026-05-04 08:33 | 51.01197 | 2.90115 | 37004 ft | 454 kts | 122° |
| 2026-05-04 08:33 | 50.99720 | 2.94546 | 37004 ft | 454 kts | 122° |
| 2026-05-04 08:35 | 50.87861 | 3.29837 | 36984 ft | 454 kts | 123° |
| 2026-05-04 08:35 | 50.84871 | 3.38660 | 36998 ft | 454 kts | 123° |
| 2026-05-04 08:37 | 50.74380 | 3.69372 | 37016 ft | 454 kts | 123° |
| 2026-05-04 08:38 | 50.71370 | 3.78101 | 37002 ft | 453 kts | 123° |
| 2026-05-04 08:38 | 50.68345 | 3.86856 | 37011 ft | 453 kts | 123° |
| 2026-05-04 08:40 | 50.56189 | 4.21657 | 37035 ft | 454 kts | 123° |
| 2026-05-04 08:41 | 50.53140 | 4.30270 | 37045 ft | 453 kts | 124° |
| 2026-05-04 08:41 | 50.50051 | 4.38956 | 37044 ft | 452 kts | 124° |
| 2026-05-04 08:42 | 50.46999 | 4.47528 | 37047 ft | 452 kts | 124° |
| 2026-05-04 08:42 | 50.43917 | 4.56140 | 37043 ft | 452 kts | 124° |
| 2026-05-04 08:43 | 50.40837 | 4.64730 | 37026 ft | 452 kts | 124° |
| 2026-05-04 08:43 | 50.37747 | 4.73332 | 37018 ft | 453 kts | 124° |
| 2026-05-04 08:44 | 50.34655 | 4.81918 | 37009 ft | 451 kts | 124° |
| 2026-05-04 08:46 | 50.22223 | 5.16050 | 37000 ft | 452 kts | 125° |
| 2026-05-04 08:46 | 50.19097 | 5.24566 | 37009 ft | 452 kts | 125° |
| 2026-05-04 08:47 | 50.16498 | 5.31646 | 37011 ft | 452 kts | 125° |
| 2026-05-04 08:47 | 50.12878 | 5.41581 | 37016 ft | 453 kts | 123° |
| 2026-05-04 08:48 | 50.10413 | 5.48848 | 37020 ft | 454 kts | 122° |
| 2026-05-04 08:48 | 50.07524 | 5.57615 | 37005 ft | 455 kts | 122° |
| 2026-05-04 08:49 | 50.04602 | 5.66357 | 36996 ft | 455 kts | 123° |
| 2026-05-04 08:50 | 49.94177 | 5.96704 | 37004 ft | 456 kts | 123° |
| 2026-05-04 08:51 | 49.91187 | 6.05384 | 37029 ft | 456 kts | 123° |
| 2026-05-04 08:51 | 49.88187 | 6.14058 | 37035 ft | 456 kts | 123° |
| 2026-05-04 08:52 | 49.85180 | 6.22733 | 37040 ft | 457 kts | 123° |
| 2026-05-04 08:52 | 49.82158 | 6.31387 | 37045 ft | 457 kts | 123° |
| 2026-05-04 08:54 | 49.70041 | 6.65829 | 37038 ft | 456 kts | 123° |
| 2026-05-04 08:55 | 49.66994 | 6.74440 | 37042 ft | 456 kts | 124° |
| 2026-05-04 08:55 | 49.63946 | 6.83025 | 37023 ft | 456 kts | 123° |
| 2026-05-04 09:01 | 49.31489 | 7.72531 | 37025 ft | 458 kts | 124° |
| 2026-05-04 09:01 | 49.28360 | 7.81015 | 37031 ft | 457 kts | 124° |
| 2026-05-04 09:02 | 49.25222 | 7.89494 | 37029 ft | 457 kts | 124° |
| 2026-05-04 09:02 | 49.22077 | 7.97945 | 37043 ft | 457 kts | 124° |
| 2026-05-04 09:03 | 49.18929 | 8.06386 | 37024 ft | 457 kts | 124° |
| 2026-05-04 09:03 | 49.15771 | 8.14824 | 37040 ft | 457 kts | 124° |
| 2026-05-04 09:04 | 49.12626 | 8.23205 | 37041 ft | 456 kts | 124° |
| 2026-05-04 09:04 | 49.09462 | 8.31616 | 37041 ft | 456 kts | 124° |
| 2026-05-04 09:05 | 49.06294 | 8.39999 | 37039 ft | 456 kts | 124° |
| 2026-05-04 09:05 | 49.03111 | 8.48380 | 37044 ft | 456 kts | 124° |
| 2026-05-04 09:06 | 48.99898 | 8.56718 | 37035 ft | 455 kts | 128° |
| 2026-05-04 09:08 | 48.83027 | 8.84530 | 37017 ft | 448 kts | 138° |
| 2026-05-04 09:08 | 48.78732 | 8.91378 | 37035 ft | 449 kts | 138° |
| 2026-05-04 09:09 | 48.74422 | 8.98231 | 37036 ft | 449 kts | 138° |
| 2026-05-04 09:09 | 48.70104 | 9.05081 | 37037 ft | 449 kts | 138° |
| 2026-05-04 09:10 | 48.65792 | 9.11913 | 37042 ft | 449 kts | 138° |
| 2026-05-04 09:10 | 48.61460 | 9.18746 | 37030 ft | 449 kts | 138° |
| 2026-05-04 09:11 | 48.57130 | 9.25566 | 37036 ft | 449 kts | 138° |
| 2026-05-04 09:11 | 48.52798 | 9.32369 | 37041 ft | 449 kts | 138° |
| 2026-05-04 09:12 | 48.48491 | 9.39117 | 37050 ft | 449 kts | 138° |
| 2026-05-04 09:14 | 48.31362 | 9.66551 | 37058 ft | 452 kts | 133° |
| 2026-05-04 09:14 | 48.27414 | 9.73909 | 37064 ft | 453 kts | 133° |
| 2026-05-04 09:15 | 48.23445 | 9.81265 | 37068 ft | 453 kts | 133° |
| 2026-05-04 09:15 | 48.19484 | 9.88589 | 37048 ft | 453 kts | 133° |
| 2026-05-04 09:17 | 48.01565 | 10.21527 | 37071 ft | 453 kts | 133° |
| 2026-05-04 09:18 | 47.97572 | 10.28793 | 37051 ft | 453 kts | 133° |
| 2026-05-04 09:18 | 47.93567 | 10.36065 | 37042 ft | 454 kts | 133° |
| 2026-05-04 09:19 | 47.89569 | 10.43294 | 37052 ft | 454 kts | 133° |
| 2026-05-04 09:19 | 47.85527 | 10.50596 | 37058 ft | 454 kts | 133° |
| 2026-05-04 09:20 | 47.81547 | 10.57798 | 37063 ft | 454 kts | 133° |
| 2026-05-04 09:20 | 47.77518 | 10.65054 | 37042 ft | 454 kts | 133° |
| 2026-05-04 09:21 | 47.73492 | 10.72271 | 37046 ft | 454 kts | 133° |
| 2026-05-04 09:21 | 47.69457 | 10.79485 | 37054 ft | 454 kts | 133° |
| 2026-05-04 09:22 | 47.65427 | 10.86667 | 37060 ft | 454 kts | 133° |
| 2026-05-04 09:22 | 47.61386 | 10.93864 | 37048 ft | 454 kts | 133° |
| 2026-05-04 09:23 | 47.57346 | 11.01040 | 37042 ft | 454 kts | 133° |
| 2026-05-04 09:23 | 47.53291 | 11.08223 | 37049 ft | 454 kts | 133° |
| 2026-05-04 09:25 | 47.37079 | 11.36724 | 37038 ft | 454 kts | 133° |
| 2026-05-04 09:26 | 47.32983 | 11.43883 | 37038 ft | 454 kts | 133° |
| 2026-05-04 09:26 | 47.28901 | 11.50981 | 37033 ft | 454 kts | 133° |
| 2026-05-04 09:27 | 47.24813 | 11.58091 | 37039 ft | 455 kts | 133° |
| 2026-05-04 09:27 | 47.20716 | 11.65199 | 37035 ft | 455 kts | 133° |
| 2026-05-04 09:28 | 47.16637 | 11.72243 | 37051 ft | 455 kts | 132° |
| 2026-05-04 09:28 | 47.12536 | 11.79334 | 37062 ft | 456 kts | 133° |
| 2026-05-04 09:29 | 47.08487 | 11.86527 | 37087 ft | 460 kts | 127° |
| 2026-05-04 09:29 | 47.05459 | 11.94810 | 37099 ft | 462 kts | 118° |
| 2026-05-04 09:30 | 47.02631 | 12.03299 | 37100 ft | 462 kts | 119° |
| 2026-05-04 09:30 | 46.99801 | 12.11743 | 37107 ft | 462 kts | 118° |
| 2026-05-04 09:31 | 46.97443 | 12.18757 | 37152 ft | 462 kts | 118° |
| 2026-05-04 09:31 | 46.94609 | 12.27147 | 37160 ft | 462 kts | 118° |
| 2026-05-04 09:32 | 46.91751 | 12.35568 | 37153 ft | 461 kts | 118° |
| 2026-05-04 09:34 | 46.80345 | 12.69020 | 37136 ft | 460 kts | 118° |
| 2026-05-04 09:34 | 46.77457 | 12.77405 | 37118 ft | 460 kts | 118° |
| 2026-05-04 09:35 | 46.74593 | 12.85699 | 37113 ft | 460 kts | 118° |
| 2026-05-04 09:35 | 46.71692 | 12.94076 | 37113 ft | 460 kts | 118° |
| 2026-05-04 09:37 | 46.60124 | 13.27268 | 37109 ft | 460 kts | 118° |
| 2026-05-04 09:38 | 46.57126 | 13.35504 | 37113 ft | 459 kts | 124° |
| 2026-05-04 09:38 | 46.52995 | 13.42468 | 37120 ft | 455 kts | 140° |
| 2026-05-04 09:39 | 46.48313 | 13.48703 | 37111 ft | 456 kts | 139° |
| 2026-05-04 09:39 | 46.43640 | 13.54949 | 37109 ft | 457 kts | 139° |
| 2026-05-04 09:40 | 46.38967 | 13.61204 | 37116 ft | 457 kts | 140° |
| 2026-05-04 09:40 | 46.34307 | 13.67393 | 37109 ft | 458 kts | 139° |
| 2026-05-04 09:42 | 46.15475 | 13.92263 | 37129 ft | 459 kts | 139° |
| 2026-05-04 09:43 | 46.10756 | 13.98461 | 37130 ft | 459 kts | 139° |
| 2026-05-04 09:43 | 46.06015 | 14.04652 | 37120 ft | 460 kts | 140° |
| 2026-05-04 09:44 | 46.01280 | 14.10821 | 37113 ft | 461 kts | 140° |
| 2026-05-04 09:46 | 45.82265 | 14.35524 | 37134 ft | 462 kts | 139° |
| 2026-05-04 09:46 | 45.77488 | 14.41689 | 37130 ft | 463 kts | 140° |
| 2026-05-04 09:47 | 45.72693 | 14.47860 | 37127 ft | 463 kts | 139° |
| 2026-05-04 09:49 | 45.53455 | 14.72474 | 37118 ft | 466 kts | 139° |
| 2026-05-04 09:51 | 45.36171 | 14.93349 | 37129 ft | 467 kts | 141° |
| 2026-05-04 09:51 | 45.31194 | 14.99314 | 37131 ft | 468 kts | 141° |
| 2026-05-04 09:52 | 45.26212 | 15.05297 | 37124 ft | 468 kts | 141° |
| 2026-05-04 09:52 | 45.21226 | 15.11242 | 37126 ft | 469 kts | 141° |
| 2026-05-04 09:53 | 45.16217 | 15.17182 | 37127 ft | 469 kts | 141° |
| 2026-05-04 09:53 | 45.11215 | 15.23126 | 37118 ft | 469 kts | 141° |
| 2026-05-04 09:54 | 45.06235 | 15.29018 | 37124 ft | 470 kts | 141° |
| 2026-05-04 09:54 | 45.01231 | 15.34919 | 37131 ft | 470 kts | 141° |
| 2026-05-04 09:55 | 44.96208 | 15.40837 | 37127 ft | 470 kts | 141° |
| 2026-05-04 09:55 | 44.91179 | 15.46750 | 37124 ft | 471 kts | 142° |
| 2026-05-04 09:56 | 44.86149 | 15.52651 | 37128 ft | 471 kts | 141° |
| 2026-05-04 09:56 | 44.81096 | 15.58570 | 37125 ft | 472 kts | 141° |
| 2026-05-04 09:57 | 44.76042 | 15.64472 | 37135 ft | 472 kts | 141° |
| 2026-05-04 09:57 | 44.70981 | 15.70365 | 37137 ft | 472 kts | 141° |
| 2026-05-04 09:58 | 44.65914 | 15.76250 | 37115 ft | 473 kts | 141° |
| 2026-05-04 09:58 | 44.60829 | 15.82139 | 37119 ft | 474 kts | 141° |
| 2026-05-04 10:00 | 44.40468 | 16.05592 | 37127 ft | 476 kts | 141° |
| 2026-05-04 10:04 | 44.04479 | 16.46548 | 37158 ft | 479 kts | 142° |
| 2026-05-04 10:04 | 43.99220 | 16.52344 | 37164 ft | 479 kts | 143° |
| 2026-05-04 10:05 | 43.93892 | 16.57918 | 37154 ft | 480 kts | 144° |
| 2026-05-04 10:05 | 43.88552 | 16.63453 | 37163 ft | 480 kts | 144° |
| 2026-05-04 10:06 | 43.83214 | 16.69036 | 37160 ft | 480 kts | 143° |
| 2026-05-04 10:06 | 43.77890 | 16.74633 | 37166 ft | 481 kts | 143° |
| 2026-05-04 10:08 | 43.59226 | 16.94102 | 37155 ft | 483 kts | 143° |
| 2026-05-04 10:08 | 43.53846 | 16.99680 | 37158 ft | 483 kts | 143° |
| 2026-05-04 10:09 | 43.48499 | 17.05201 | 37172 ft | 483 kts | 143° |
| 2026-05-04 10:09 | 43.43149 | 17.10726 | 37165 ft | 484 kts | 143° |
| 2026-05-04 10:10 | 43.37745 | 17.16284 | 37164 ft | 484 kts | 143° |
| 2026-05-04 10:10 | 43.32355 | 17.21825 | 37167 ft | 484 kts | 143° |
| 2026-05-04 10:11 | 43.26956 | 17.27374 | 37158 ft | 485 kts | 143° |
| 2026-05-04 10:11 | 43.21551 | 17.32910 | 37163 ft | 485 kts | 143° |
| 2026-05-04 10:12 | 43.16142 | 17.38416 | 37164 ft | 485 kts | 143° |
| 2026-05-04 10:12 | 43.10708 | 17.43943 | 37180 ft | 486 kts | 143° |
| 2026-05-04 10:13 | 43.05284 | 17.49465 | 37169 ft | 486 kts | 143° |
| 2026-05-04 10:13 | 42.99890 | 17.54944 | 37171 ft | 487 kts | 143° |
| 2026-05-04 10:14 | 42.94408 | 17.60482 | 37174 ft | 487 kts | 143° |
| 2026-05-04 10:16 | 42.72609 | 17.82410 | 37178 ft | 488 kts | 143° |
| 2026-05-04 10:16 | 42.67138 | 17.87883 | 37179 ft | 489 kts | 143° |
| 2026-05-04 10:17 | 42.61673 | 17.93328 | 37187 ft | 489 kts | 143° |
| 2026-05-04 10:19 | 42.40575 | 18.14290 | 37190 ft | 491 kts | 143° |
| 2026-05-04 10:19 | 42.35056 | 18.19724 | 37188 ft | 491 kts | 143° |
| 2026-05-04 10:20 | 42.29532 | 18.25162 | 37188 ft | 491 kts | 143° |
| 2026-05-04 10:20 | 42.24003 | 18.30611 | 37189 ft | 491 kts | 143° |
| 2026-05-04 10:21 | 42.18475 | 18.36037 | 37190 ft | 491 kts | 143° |
| 2026-05-04 10:21 | 42.12975 | 18.41404 | 37180 ft | 492 kts | 143° |
| 2026-05-04 10:22 | 42.04663 | 18.49532 | 37182 ft | 493 kts | 143° |
| 2026-05-04 10:23 | 41.99121 | 18.54979 | 37179 ft | 493 kts | 142° |
| 2026-05-04 10:25 | 41.77450 | 18.77582 | 37177 ft | 494 kts | 142° |
| 2026-05-04 10:25 | 41.71989 | 18.83193 | 37190 ft | 495 kts | 141° |
| 2026-05-04 10:26 | 41.66519 | 18.88820 | 37184 ft | 496 kts | 141° |
| 2026-05-04 10:26 | 41.61051 | 18.94436 | 37173 ft | 496 kts | 141° |
| 2026-05-04 10:27 | 41.55561 | 19.00071 | 37171 ft | 497 kts | 141° |
| 2026-05-04 10:27 | 41.50061 | 19.05684 | 37174 ft | 497 kts | 141° |
| 2026-05-04 10:28 | 41.44252 | 19.10658 | 37174 ft | 498 kts | 156° |
| 2026-05-04 10:28 | 41.37826 | 19.13932 | 37186 ft | 498 kts | 161° |
| 2026-05-04 10:29 | 41.31252 | 19.17118 | 37170 ft | 499 kts | 161° |
| 2026-05-04 10:29 | 41.24768 | 19.20274 | 37167 ft | 500 kts | 161° |
| 2026-05-04 10:30 | 41.18187 | 19.23475 | 37169 ft | 501 kts | 161° |
| 2026-05-04 10:30 | 41.14960 | 19.25047 | 36802 ft | 501 kts | 161° |
| 2026-05-04 10:30 | 41.11695 | 19.26638 | 36251 ft | 502 kts | 161° |
| 2026-05-04 10:30 | 41.08400 | 19.28237 | 35721 ft | 503 kts | 161° |
| 2026-05-04 10:31 | 41.05103 | 19.29830 | 35199 ft | 505 kts | 161° |
| 2026-05-04 10:31 | 41.01798 | 19.31422 | 34694 ft | 506 kts | 161° |
| 2026-05-04 10:32 | 40.82025 | 19.40960 | 31430 ft | 494 kts | 160° |
| 2026-05-04 10:33 | 40.78811 | 19.42503 | 30912 ft | 491 kts | 160° |
| 2026-05-04 10:33 | 40.75624 | 19.44023 | 30406 ft | 493 kts | 160° |
| 2026-05-04 10:33 | 40.72397 | 19.45555 | 29834 ft | 492 kts | 160° |
| 2026-05-04 10:33 | 40.69139 | 19.47108 | 29264 ft | 492 kts | 160° |
| 2026-05-04 10:34 | 40.65899 | 19.48659 | 28691 ft | 513 kts | 160° |
| 2026-05-04 10:34 | 40.62519 | 19.50278 | 28126 ft | 517 kts | 160° |
| 2026-05-04 10:34 | 40.59146 | 19.51890 | 27569 ft | 515 kts | 160° |
| 2026-05-04 10:34 | 40.55772 | 19.53499 | 27025 ft | 510 kts | 160° |
| 2026-05-04 10:35 | 40.52459 | 19.55080 | 26490 ft | 506 kts | 160° |
| 2026-05-04 10:35 | 40.49157 | 19.56653 | 25970 ft | 501 kts | 160° |
| 2026-05-04 10:35 | 40.45883 | 19.58206 | 25454 ft | 497 kts | 160° |
| 2026-05-04 10:35 | 40.42647 | 19.59740 | 24953 ft | 492 kts | 160° |
| 2026-05-04 10:36 | 40.39451 | 19.61249 | 24456 ft | 487 kts | 160° |
| 2026-05-04 10:36 | 40.36268 | 19.62746 | 23975 ft | 483 kts | 160° |
| 2026-05-04 10:36 | 40.33115 | 19.64227 | 23440 ft | 478 kts | 160° |
| 2026-05-04 10:36 | 40.30040 | 19.65678 | 22881 ft | 474 kts | 160° |
| 2026-05-04 10:37 | 40.26910 | 19.67153 | 22300 ft | 469 kts | 160° |
| 2026-05-04 10:37 | 40.23847 | 19.68596 | 21756 ft | 465 kts | 160° |
| 2026-05-04 10:37 | 40.20854 | 19.70002 | 21216 ft | 461 kts | 160° |
| 2026-05-04 10:37 | 40.17811 | 19.71430 | 20686 ft | 456 kts | 160° |
| 2026-05-04 10:39 | 40.00366 | 19.79776 | 16941 ft | 445 kts | 156° |
| 2026-05-04 10:39 | 39.97524 | 19.81360 | 15692 ft | 441 kts | 155° |
| 2026-05-04 10:39 | 39.94732 | 19.82973 | 14460 ft | 434 kts | 154° |
| 2026-05-04 10:40 | 39.92007 | 19.84556 | 13186 ft | 426 kts | 154° |
| 2026-05-04 10:40 | 39.89327 | 19.86098 | 11902 ft | 417 kts | 155° |
| 2026-05-04 10:40 | 39.86686 | 19.87592 | 10640 ft | 407 kts | 155° |
| 2026-05-04 10:40 | 39.84110 | 19.89028 | 9374 ft | 397 kts | 155° |
| 2026-05-04 10:41 | 39.81591 | 19.90396 | 8071 ft | 387 kts | 159° |
| 2026-05-04 10:41 | 39.79005 | 19.91138 | 6833 ft | 378 kts | 174° |
| 2026-05-04 10:41 | 39.76442 | 19.91467 | 5517 ft | 372 kts | 175° |
| 2026-05-04 10:41 | 39.73861 | 19.91737 | 4236 ft | 364 kts | 171° |
| 2026-05-04 10:42 | 39.71598 | 19.92811 | 3634 ft | 340 kts | 147° |
| 2026-05-04 10:42 | 39.69967 | 19.94816 | 3404 ft | 308 kts | 122° |
| 2026-05-04 10:42 | 39.69225 | 19.97247 | 3269 ft | 278 kts | 95° |
| 2026-05-04 10:42 | 39.69410 | 19.99589 | 3197 ft | 249 kts | 65° |
| 2026-05-04 10:43 | 39.70368 | 20.01268 | 3200 ft | 219 kts | 33° |
| 2026-05-04 10:44 | 39.75227 | 19.94521 | 3216 ft | 193 kts | 265° |
| 2026-05-04 10:45 | 39.74878 | 19.92830 | 3216 ft | 196 kts | 239° |
| 2026-05-04 10:45 | 39.73859 | 19.91685 | 3123 ft | 202 kts | 205° |
| 2026-05-04 10:45 | 39.72457 | 19.91395 | 2725 ft | 207 kts | 184° |
| 2026-05-04 10:45 | 39.71021 | 19.91288 | 2367 ft | 205 kts | 184° |
| 2026-05-04 10:46 | 39.69617 | 19.91183 | 2036 ft | 197 kts | 184° |
| 2026-05-04 10:46 | 39.68297 | 19.91080 | 1721 ft | 184 kts | 184° |
| 2026-05-04 10:46 | 39.67058 | 19.90929 | 1458 ft | 173 kts | 188° |
| 2026-05-04 10:46 | 39.65918 | 19.90670 | 1217 ft | 160 kts | 189° |
| 2026-05-04 10:47 | 39.64874 | 19.90481 | 1006 ft | 146 kts | 185° |
| 2026-05-04 10:47 | 39.63887 | 19.90455 | 814 ft | 141 kts | 175° |
| 2026-05-04 10:47 | 39.62913 | 19.90558 | 598 ft | 138 kts | 170° |
| 2026-05-04 10:47 | 39.61973 | 19.90753 | 339 ft | 136 kts | 165° |
| 2026-05-04 10:49 | 39.59195 | 19.91473 | 6 ft | 6 kts | 327° |
| 2026-05-04 10:49 | 39.59293 | 19.91445 | 7 ft | 21 kts | 349° |
| 2026-05-04 10:50 | 39.59448 | 19.91404 | 5 ft | 24 kts | 348° |
| 2026-05-04 10:51 | 39.60657 | 19.91220 | 9 ft | 9 kts | 4° |
| 2026-05-04 10:52 | 39.60698 | 19.91272 | 9 ft | 10 kts | 89° |
| 2026-05-04 10:52 | 39.60706 | 19.91344 | 9 ft | 0 kts | 78° |